createdAt,value
2017-07-28T00:07:54.000Z,23.33
2017-07-28T00:17:54.000Z,23.3
2017-07-28T00:27:54.000Z,23.26
2017-07-28T00:37:54.000Z,23.25
2017-07-28T00:47:54.000Z,23.22
2017-07-28T01:07:54.000Z,23.18
2017-07-28T01:17:54.000Z,23.15
2017-07-28T01:27:54.000Z,23.12
2017-07-28T01:37:54.000Z,23.08
2017-07-28T01:47:54.000Z,23.05
2017-07-28T01:57:54.000Z,23.02
2017-07-28T02:07:54.000Z,22.98
2017-07-28T02:17:54.000Z,22.95
2017-07-28T02:27:54.000Z,22.91
2017-07-28T02:37:54.000Z,22.88
2017-07-28T02:47:54.000Z,22.84
2017-07-28T02:57:54.000Z,22.8
2017-07-28T03:07:54.000Z,22.78
2017-07-28T03:17:54.000Z,22.74
2017-07-28T03:27:54.000Z,22.71
2017-07-28T03:37:54.000Z,22.67
2017-07-28T03:47:54.000Z,22.64
2017-07-28T03:57:54.000Z,22.61
2017-07-28T04:07:54.000Z,22.58
2017-07-28T04:17:54.000Z,22.57
2017-07-28T04:27:54.000Z,22.54
2017-07-28T04:37:54.000Z,22.53
2017-07-28T04:47:54.000Z,22.49
2017-07-28T04:57:54.000Z,22.46
2017-07-28T05:07:54.000Z,22.46
2017-07-28T05:17:54.000Z,22.47
2017-07-28T05:27:54.000Z,22.44
2017-07-28T05:37:54.000Z,22.51
2017-07-28T05:47:54.000Z,22.44
2017-07-28T05:57:54.000Z,22.45
2017-07-28T06:07:54.000Z,22.47
2017-07-28T06:17:54.000Z,22.55
2017-07-28T06:27:54.000Z,22.57
2017-07-28T06:37:54.000Z,22.64
2017-07-28T06:47:54.000Z,22.68
2017-07-28T06:57:54.000Z,22.69
2017-07-28T07:07:54.000Z,22.76
2017-07-28T07:17:54.000Z,22.77
2017-07-28T07:27:54.000Z,22.82
2017-07-28T07:37:54.000Z,22.79
2017-07-28T07:47:55.000Z,22.81
2017-07-28T07:57:55.000Z,22.82
2017-07-28T08:07:55.000Z,22.86
2017-07-28T08:17:55.000Z,22.83
2017-07-28T08:27:55.000Z,22.88
2017-07-28T08:37:55.000Z,22.93
2017-07-28T08:47:55.000Z,23.02
2017-07-28T08:57:55.000Z,23.06
2017-07-28T09:07:55.000Z,23.09
2017-07-28T09:17:55.000Z,23.18
2017-07-28T09:27:55.000Z,23.35
2017-07-28T09:37:55.000Z,23.55
2017-07-28T09:47:55.000Z,23.32
2017-07-28T09:57:55.000Z,23.63
2017-07-28T10:07:55.000Z,23.45
2017-07-28T10:17:56.000Z,23.74
2017-07-28T10:27:55.000Z,23.85
2017-07-28T10:37:55.000Z,23.97
2017-07-28T10:47:55.000Z,24.07
2017-07-28T10:57:56.000Z,23.94
2017-07-28T11:07:55.000Z,23.89
2017-07-28T11:17:55.000Z,23.93
2017-07-28T11:27:55.000Z,23.94
2017-07-28T11:37:55.000Z,23.88
2017-07-28T11:47:55.000Z,23.76
2017-07-28T11:57:55.000Z,23.78
2017-07-28T12:07:55.000Z,23.84
2017-07-28T12:17:55.000Z,23.82
2017-07-28T12:27:55.000Z,23.81
2017-07-28T12:37:55.000Z,24
2017-07-28T12:47:55.000Z,24.08
2017-07-28T12:57:55.000Z,23.96
2017-07-28T13:07:55.000Z,23.86
2017-07-28T13:17:56.000Z,24.24
2017-07-28T13:27:55.000Z,24.09
2017-07-28T13:37:55.000Z,24.06
2017-07-28T13:47:56.000Z,23.95
2017-07-28T13:57:55.000Z,23.96
2017-07-28T14:07:55.000Z,24.01
2017-07-28T14:17:55.000Z,24.05
2017-07-28T14:27:55.000Z,24.07
2017-07-28T14:37:55.000Z,24.08
2017-07-28T14:47:55.000Z,24.11
2017-07-28T14:57:55.000Z,24.05
2017-07-28T15:07:55.000Z,23.99
2017-07-28T15:17:55.000Z,24.04
2017-07-28T15:27:55.000Z,23.97
2017-07-28T15:37:56.000Z,23.91
2017-07-28T15:47:55.000Z,23.86
2017-07-28T15:57:56.000Z,23.8
2017-07-28T16:07:55.000Z,23.83
2017-07-28T16:17:56.000Z,23.78
2017-07-28T16:27:56.000Z,23.72
2017-07-28T16:37:56.000Z,23.71
2017-07-28T16:47:56.000Z,23.73
2017-07-28T16:57:57.000Z,23.75
2017-07-28T17:07:56.000Z,23.74
2017-07-28T17:17:56.000Z,23.7
2017-07-28T17:27:56.000Z,23.73
2017-07-28T17:37:56.000Z,23.71
2017-07-28T17:47:56.000Z,23.64
2017-07-28T17:57:56.000Z,23.67
2017-07-28T18:07:56.000Z,23.65
2017-07-28T18:17:56.000Z,23.71
2017-07-28T18:27:56.000Z,23.72
2017-07-28T18:37:56.000Z,23.77
2017-07-28T18:47:56.000Z,23.82
2017-07-28T18:57:56.000Z,23.84
2017-07-28T19:07:56.000Z,23.82
2017-07-28T19:17:56.000Z,23.81
2017-07-28T19:27:56.000Z,23.79
2017-07-28T19:37:56.000Z,23.77
2017-07-28T19:47:56.000Z,23.79
2017-07-28T19:57:56.000Z,23.81
2017-07-28T20:07:56.000Z,23.76
2017-07-28T20:17:56.000Z,23.75
2017-07-28T20:27:59.000Z,23.68
2017-07-28T20:37:56.000Z,23.66
2017-07-28T20:47:56.000Z,23.59
2017-07-28T20:57:56.000Z,23.55
2017-07-28T21:07:56.000Z,23.53
2017-07-28T21:17:56.000Z,23.47
2017-07-28T21:27:56.000Z,23.42
2017-07-28T21:37:56.000Z,23.41
2017-07-28T21:47:56.000Z,23.38
2017-07-28T22:07:56.000Z,23.28
2017-07-28T22:17:56.000Z,23.26
2017-07-28T22:27:56.000Z,23.24
2017-07-28T22:37:56.000Z,23.22
2017-07-28T22:47:56.000Z,23.15
2017-07-28T22:57:56.000Z,23.1
2017-07-28T23:07:56.000Z,23.07
2017-07-28T23:17:56.000Z,23.06
2017-07-28T23:27:56.000Z,23.03
2017-07-28T23:37:56.000Z,22.96
2017-07-28T23:47:56.000Z,22.94
2017-07-28T23:57:56.000Z,22.91
